Chobham, United Kingdom
Current Conditions -  °F | °C
As of 9:20 PM on Thursday 30 Oct 2014 (Local Time) from EGLF Reporting Station
Haze Haze  
Wind Chill: 52°   Ceiling: Unl
Heat Index: 52°   Visibility: 1.2mi
Dew Point: 52°   Wind: 3mph
Humidity: 100%   Direction: 140°SE
Pressure: 30.06"   Gusts: NA
Location:  51.35°N, 0.6°W
Report Text: EGLF 302120Z 14003KT 2000 BR FEW008 11/11 Q1018
Loading
Personal Weather Stations






























Interactive Weather Map
Tropical Storm Tracking
New forecast layout! Learn more

10-Day Weather Forecast

Advertisements
Track Severe Weather on mobile